Arboles, CO

10:33 AM MST on March 06, 2015 (GMT -0700)
Crowbar Creek | Change Station
CLOSE
Current Station
Personal Weather Station
Location: Bayfield, CO
Elevation: 6979 ft
Nearby Weather Stations

Elev 6979 ft 37.21 °N, 107.54 °W | Updated 24 seconds ago

Clear
Clear
35.0 °F
Feels Like 30 °F
N
5.3
Wind Variable Wind from WNW
Gusts 5.8 mph

Today
High -- | Low -- °F
--% Chance of Precip.
Yesterday
High -- | Low -- °F
Precip. -- in
6:34 AM 6:08 PM
Full, 99% visible
Pressure 30.54 in
Visibility 10.0 miles
Clouds Clear
Windchill 30 °F
Dew Point 22 °F
Humidity 60%
Rainfall in
Snow Depth Not available.
UV 4 out of 12
Pollen 4.00 out of 12
Air Quality Not available.
Flu Activity Not available.
METAR KDRO 061653Z AUTO 07004KT 10SM CLR 00/M09 A3042 RMK AO2 SLP340 T00001094

More Conditions Fewer Conditions

Pressure 30.54 in
Visibility 10.0 miles
Clouds Clear
Windchill 30 °F
Dew Point 22 °F
Humidity 60%
Rainfall in
Snow Depth Not available.
UV 4 out of 12
Pollen 4.00 out of 12
Air Quality Not available.
Flu Activity Not available.
METAR KDRO 061653Z AUTO 07004KT 10SM CLR 00/M09 A3042 RMK AO2 SLP340 T00001094

More Conditions Fewer Conditions

10-Day Weather Forecast

Almanac

Astronomy

Mar. 06, 2015 Rise Set
Actual Time
Civil Twilight
Nautical Twilight
Astronomical Twilight
Moon
Length of Visible Light
Length of Day
Tomorrow will be .
, % of the Moon is Illuminated

Today's Extremes

State Highs State Lows

Community

WunderPhotos

Upload Photos

1,803,345 photos uploaded!

WunderBlogs® & News

Nearby

Air Quality

  Air Quality AQ Index Pollutant
Not available.

Snow Depth

Station Depth Elevation

Earthquake Activity

City Distance Mag. Time & Date
Minimum magnitude displayed is 2.5.

Coastal Water Temperatures

Place Temperature

Nearby Weather Stations